sensor_id;sensor_type;location;lat;lon;timestamp;P1;durP1;ratioP1;P2;durP2;ratioP2
58097;SDS011;43913;55.940;37.504;2022-12-31T00:01:05;48.08;;;13.15;;
58097;SDS011;43913;55.940;37.504;2022-12-31T00:03:34;13.75;;;10.55;;
58097;SDS011;43913;55.940;37.504;2022-12-31T00:06:01;17.25;;;11.98;;
58097;SDS011;43913;55.940;37.504;2022-12-31T00:08:26;16.75;;;11.00;;
58097;SDS011;43913;55.940;37.504;2022-12-31T00:10:52;15.15;;;10.15;;
58097;SDS011;43913;55.940;37.504;2022-12-31T00:13:18;14.25;;;9.98;;
58097;SDS011;43913;55.940;37.504;2022-12-31T00:15:44;15.95;;;11.57;;
58097;SDS011;43913;55.940;37.504;2022-12-31T00:18:10;15.20;;;9.95;;
58097;SDS011;43913;55.940;37.504;2022-12-31T00:20:39;14.50;;;9.40;;
58097;SDS011;43913;55.940;37.504;2022-12-31T00:23:07;14.30;;;10.13;;
58097;SDS011;43913;55.940;37.504;2022-12-31T00:25:34;14.02;;;9.82;;
58097;SDS011;43913;55.940;37.504;2022-12-31T00:28:00;12.70;;;9.05;;
58097;SDS011;43913;55.940;37.504;2022-12-31T00:30:27;13.35;;;9.82;;
58097;SDS011;43913;55.940;37.504;2022-12-31T00:32:52;11.45;;;8.43;;
58097;SDS011;43913;55.940;37.504;2022-12-31T00:35:18;14.90;;;9.55;;
58097;SDS011;43913;55.940;37.504;2022-12-31T00:37:44;12.95;;;9.13;;
58097;SDS011;43913;55.940;37.504;2022-12-31T00:40:09;12.52;;;9.00;;
58097;SDS011;43913;55.940;37.504;2022-12-31T00:42:35;12.27;;;9.23;;
58097;SDS011;43913;55.940;37.504;2022-12-31T00:45:01;13.02;;;9.10;;
58097;SDS011;43913;55.940;37.504;2022-12-31T00:47:28;13.35;;;8.60;;
58097;SDS011;43913;55.940;37.504;2022-12-31T00:49:54;13.07;;;9.57;;
58097;SDS011;43913;55.940;37.504;2022-12-31T00:52:19;13.75;;;10.30;;
58097;SDS011;43913;55.940;37.504;2022-12-31T00:54:45;12.70;;;8.75;;
58097;SDS011;43913;55.940;37.504;2022-12-31T00:57:11;11.50;;;8.43;;
58097;SDS011;43913;55.940;37.504;2022-12-31T00:59:37;11.50;;;9.05;;
58097;SDS011;43913;55.940;37.504;2022-12-31T01:02:02;13.90;;;9.95;;
58097;SDS011;43913;55.940;37.504;2022-12-31T01:04:28;10.68;;;8.95;;
58097;SDS011;43913;55.940;37.504;2022-12-31T01:06:53;14.07;;;9.77;;
58097;SDS011;43913;55.940;37.504;2022-12-31T01:09:19;13.55;;;9.57;;
58097;SDS011;43913;55.940;37.504;2022-12-31T01:11:45;12.27;;;8.30;;
58097;SDS011;43913;55.940;37.504;2022-12-31T01:14:12;13.07;;;8.13;;
58097;SDS011;43913;55.940;37.504;2022-12-31T01:16:41;12.30;;;8.23;;
58097;SDS011;43913;55.940;37.504;2022-12-31T01:19:10;14.15;;;9.00;;
58097;SDS011;43913;55.940;37.504;2022-12-31T01:21:37;11.60;;;8.50;;
58097;SDS011;43913;55.940;37.504;2022-12-31T01:24:05;12.15;;;9.38;;
58097;SDS011;43913;55.940;37.504;2022-12-31T01:26:32;12.02;;;8.93;;
58097;SDS011;43913;55.940;37.504;2022-12-31T01:28:58;11.75;;;8.77;;
58097;SDS011;43913;55.940;37.504;2022-12-31T01:31:23;12.15;;;9.23;;
58097;SDS011;43913;55.940;37.504;2022-12-31T01:33:50;12.20;;;8.77;;
58097;SDS011;43913;55.940;37.504;2022-12-31T01:36:26;13.70;;;9.55;;
58097;SDS011;43913;55.940;37.504;2022-12-31T01:38:54;13.50;;;9.98;;
58097;SDS011;43913;55.940;37.504;2022-12-31T01:41:24;12.43;;;9.10;;
58097;SDS011;43913;55.940;37.504;2022-12-31T01:43:56;13.30;;;9.50;;
58097;SDS011;43913;55.940;37.504;2022-12-31T01:46:28;12.10;;;9.27;;
58097;SDS011;43913;55.940;37.504;2022-12-31T01:49:43;12.85;;;9.77;;
58097;SDS011;43913;55.940;37.504;2022-12-31T01:51:53;12.10;;;9.55;;
58097;SDS011;43913;55.940;37.504;2022-12-31T01:54:23;12.27;;;9.55;;
58097;SDS011;43913;55.940;37.504;2022-12-31T01:56:51;12.35;;;8.57;;
58097;SDS011;43913;55.940;37.504;2022-12-31T01:59:18;14.43;;;10.90;;
58097;SDS011;43913;55.940;37.504;2022-12-31T02:01:44;13.35;;;9.70;;
58097;SDS011;43913;55.940;37.504;2022-12-31T02:04:12;12.65;;;9.18;;
58097;SDS011;43913;55.940;37.504;2022-12-31T02:06:42;12.63;;;9.95;;
58097;SDS011;43913;55.940;37.504;2022-12-31T02:09:11;13.20;;;9.25;;
58097;SDS011;43913;55.940;37.504;2022-12-31T02:11:37;13.32;;;9.88;;
58097;SDS011;43913;55.940;37.504;2022-12-31T02:14:08;11.70;;;9.25;;
58097;SDS011;43913;55.940;37.504;2022-12-31T02:19:29;11.70;;;9.55;;
58097;SDS011;43913;55.940;37.504;2022-12-31T02:22:15;12.75;;;10.07;;
58097;SDS011;43913;55.940;37.504;2022-12-31T02:35:36;14.00;;;9.98;;
58097;SDS011;43913;55.940;37.504;2022-12-31T02:40:34;12.55;;;9.48;;
58097;SDS011;43913;55.940;37.504;2022-12-31T02:43:01;11.77;;;9.52;;
58097;SDS011;43913;55.940;37.504;2022-12-31T02:45:31;12.20;;;9.60;;
58097;SDS011;43913;55.940;37.504;2022-12-31T02:53:34;13.90;;;9.73;;
58097;SDS011;43913;55.940;37.504;2022-12-31T02:59:12;11.15;;;9.13;;
58097;SDS011;43913;55.940;37.504;2022-12-31T03:02:18;14.38;;;9.45;;
58097;SDS011;43913;55.940;37.504;2022-12-31T03:04:53;12.60;;;9.27;;
58097;SDS011;43913;55.940;37.504;2022-12-31T03:07:27;12.13;;;9.43;;
58097;SDS011;43913;55.940;37.504;2022-12-31T03:09:54;12.40;;;9.70;;
58097;SDS011;43913;55.940;37.504;2022-12-31T03:12:24;12.23;;;9.15;;
58097;SDS011;43913;55.940;37.504;2022-12-31T03:15:11;14.18;;;10.57;;
58097;SDS011;43913;55.940;37.504;2022-12-31T03:20:22;12.05;;;9.23;;
58097;SDS011;43913;55.940;37.504;2022-12-31T03:23:09;12.05;;;9.15;;
58097;SDS011;43913;55.940;37.504;2022-12-31T03:25:37;15.27;;;11.10;;
58097;SDS011;43913;55.940;37.504;2022-12-31T03:28:05;11.75;;;9.07;;
58097;SDS011;43913;55.940;37.504;2022-12-31T03:30:33;13.55;;;10.50;;
58097;SDS011;43913;55.940;37.504;2022-12-31T03:33:00;12.50;;;9.50;;
58097;SDS011;43913;55.940;37.504;2022-12-31T03:35:26;13.38;;;10.43;;
58097;SDS011;43913;55.940;37.504;2022-12-31T03:37:53;14.77;;;10.82;;
58097;SDS011;43913;55.940;37.504;2022-12-31T03:40:19;15.32;;;10.23;;
58097;SDS011;43913;55.940;37.504;2022-12-31T03:42:46;12.48;;;9.95;;
58097;SDS011;43913;55.940;37.504;2022-12-31T03:45:12;13.40;;;10.82;;
58097;SDS011;43913;55.940;37.504;2022-12-31T03:47:39;12.35;;;8.85;;
58097;SDS011;43913;55.940;37.504;2022-12-31T03:50:05;10.80;;;8.77;;
58097;SDS011;43913;55.940;37.504;2022-12-31T03:52:32;14.10;;;10.90;;
58097;SDS011;43913;55.940;37.504;2022-12-31T03:54:58;12.45;;;9.55;;
58097;SDS011;43913;55.940;37.504;2022-12-31T03:57:24;10.48;;;9.00;;
58097;SDS011;43913;55.940;37.504;2022-12-31T03:59:49;13.43;;;10.52;;
58097;SDS011;43913;55.940;37.504;2022-12-31T04:02:15;11.45;;;9.15;;
58097;SDS011;43913;55.940;37.504;2022-12-31T04:04:41;13.70;;;9.93;;
58097;SDS011;43913;55.940;37.504;2022-12-31T04:07:06;12.65;;;9.98;;
58097;SDS011;43913;55.940;37.504;2022-12-31T04:09:32;11.43;;;9.25;;
58097;SDS011;43913;55.940;37.504;2022-12-31T04:11:58;10.43;;;8.65;;
58097;SDS011;43913;55.940;37.504;2022-12-31T04:14:23;8.68;;;6.90;;
58097;SDS011;43913;55.940;37.504;2022-12-31T04:16:49;9.48;;;8.23;;
58097;SDS011;43913;55.940;37.504;2022-12-31T04:19:18;8.75;;;7.85;;
58097;SDS011;43913;55.940;37.504;2022-12-31T04:21:45;10.80;;;7.82;;
58097;SDS011;43913;55.940;37.504;2022-12-31T04:24:12;9.77;;;8.45;;
58097;SDS011;43913;55.940;37.504;2022-12-31T04:26:37;8.73;;;7.03;;
58097;SDS011;43913;55.940;37.504;2022-12-31T04:29:03;10.65;;;8.85;;
58097;SDS011;43913;55.940;37.504;2022-12-31T04:31:29;8.10;;;7.28;;
58097;SDS011;43913;55.940;37.504;2022-12-31T04:33:55;8.45;;;6.97;;
58097;SDS011;43913;55.940;37.504;2022-12-31T04:36:20;10.23;;;6.97;;
58097;SDS011;43913;55.940;37.504;2022-12-31T04:38:46;8.75;;;7.45;;
58097;SDS011;43913;55.940;37.504;2022-12-31T04:41:12;8.57;;;7.32;;
58097;SDS011;43913;55.940;37.504;2022-12-31T04:43:51;9.77;;;7.68;;
58097;SDS011;43913;55.940;37.504;2022-12-31T04:46:21;9.25;;;7.25;;
58097;SDS011;43913;55.940;37.504;2022-12-31T04:48:59;9.07;;;6.72;;
58097;SDS011;43913;55.940;37.504;2022-12-31T04:51:25;8.38;;;7.18;;
58097;SDS011;43913;55.940;37.504;2022-12-31T04:53:52;9.48;;;6.95;;
58097;SDS011;43913;55.940;37.504;2022-12-31T04:56:17;9.52;;;7.07;;
58097;SDS011;43913;55.940;37.504;2022-12-31T04:58:43;10.15;;;7.28;;
58097;SDS011;43913;55.940;37.504;2022-12-31T05:01:17;8.52;;;7.43;;
58097;SDS011;43913;55.940;37.504;2022-12-31T05:03:43;9.77;;;7.40;;
58097;SDS011;43913;55.940;37.504;2022-12-31T05:06:13;9.27;;;6.82;;
58097;SDS011;43913;55.940;37.504;2022-12-31T05:08:40;10.45;;;7.90;;
58097;SDS011;43913;55.940;37.504;2022-12-31T05:11:06;8.15;;;7.00;;
58097;SDS011;43913;55.940;37.504;2022-12-31T05:13:32;8.20;;;6.90;;
58097;SDS011;43913;55.940;37.504;2022-12-31T05:16:00;7.70;;;6.72;;
58097;SDS011;43913;55.940;37.504;2022-12-31T05:18:27;8.13;;;6.75;;
58097;SDS011;43913;55.940;37.504;2022-12-31T05:20:53;10.27;;;5.85;;
58097;SDS011;43913;55.940;37.504;2022-12-31T05:23:19;10.73;;;6.38;;
58097;SDS011;43913;55.940;37.504;2022-12-31T05:25:45;6.35;;;5.18;;
58097;SDS011;43913;55.940;37.504;2022-12-31T05:28:11;7.38;;;5.75;;
58097;SDS011;43913;55.940;37.504;2022-12-31T05:30:37;6.35;;;5.35;;
58097;SDS011;43913;55.940;37.504;2022-12-31T05:33:02;6.90;;;5.75;;
58097;SDS011;43913;55.940;37.504;2022-12-31T05:35:28;7.88;;;5.15;;
58097;SDS011;43913;55.940;37.504;2022-12-31T05:37:54;7.45;;;5.43;;
58097;SDS011;43913;55.940;37.504;2022-12-31T05:40:20;7.07;;;5.55;;
58097;SDS011;43913;55.940;37.504;2022-12-31T05:42:45;6.13;;;5.38;;
58097;SDS011;43913;55.940;37.504;2022-12-31T05:45:11;7.88;;;5.50;;
58097;SDS011;43913;55.940;37.504;2022-12-31T05:47:40;5.63;;;4.72;;
58097;SDS011;43913;55.940;37.504;2022-12-31T05:50:07;6.38;;;5.35;;
58097;SDS011;43913;55.940;37.504;2022-12-31T05:52:34;6.07;;;5.00;;
58097;SDS011;43913;55.940;37.504;2022-12-31T05:55:00;6.20;;;5.15;;
58097;SDS011;43913;55.940;37.504;2022-12-31T05:57:26;6.22;;;5.30;;
58097;SDS011;43913;55.940;37.504;2022-12-31T05:59:51;4.70;;;4.18;;
58097;SDS011;43913;55.940;37.504;2022-12-31T06:02:18;5.40;;;4.90;;
58097;SDS011;43913;55.940;37.504;2022-12-31T06:04:44;6.18;;;4.95;;
58097;SDS011;43913;55.940;37.504;2022-12-31T06:07:10;5.22;;;4.07;;
58097;SDS011;43913;55.940;37.504;2022-12-31T06:09:36;5.13;;;4.60;;
58097;SDS011;43913;55.940;37.504;2022-12-31T06:12:03;4.40;;;4.00;;
58097;SDS011;43913;55.940;37.504;2022-12-31T06:14:29;5.00;;;4.45;;
58097;SDS011;43913;55.940;37.504;2022-12-31T06:16:55;4.82;;;4.18;;
58097;SDS011;43913;55.940;37.504;2022-12-31T06:19:21;4.38;;;3.97;;
58097;SDS011;43913;55.940;37.504;2022-12-31T06:21:47;4.22;;;3.83;;
58097;SDS011;43913;55.940;37.504;2022-12-31T06:24:13;4.97;;;4.47;;
58097;SDS011;43913;55.940;37.504;2022-12-31T06:26:38;4.65;;;4.20;;
58097;SDS011;43913;55.940;37.504;2022-12-31T06:29:04;4.80;;;4.22;;
58097;SDS011;43913;55.940;37.504;2022-12-31T06:31:30;4.47;;;4.07;;
58097;SDS011;43913;55.940;37.504;2022-12-31T06:33:55;4.32;;;3.92;;
58097;SDS011;43913;55.940;37.504;2022-12-31T06:36:24;3.78;;;3.38;;
58097;SDS011;43913;55.940;37.504;2022-12-31T06:38:53;4.45;;;3.83;;
58097;SDS011;43913;55.940;37.504;2022-12-31T06:41:19;3.97;;;3.58;;
58097;SDS011;43913;55.940;37.504;2022-12-31T06:43:45;4.15;;;3.75;;
58097;SDS011;43913;55.940;37.504;2022-12-31T06:46:14;4.93;;;3.92;;
58097;SDS011;43913;55.940;37.504;2022-12-31T06:48:41;3.90;;;3.60;;
58097;SDS011;43913;55.940;37.504;2022-12-31T06:51:12;5.13;;;4.15;;
58097;SDS011;43913;55.940;37.504;2022-12-31T06:53:39;4.95;;;4.18;;
58097;SDS011;43913;55.940;37.504;2022-12-31T06:56:11;4.90;;;4.40;;
58097;SDS011;43913;55.940;37.504;2022-12-31T06:58:43;4.50;;;4.07;;
58097;SDS011;43913;55.940;37.504;2022-12-31T07:03:39;5.15;;;4.18;;
58097;SDS011;43913;55.940;37.504;2022-12-31T07:06:09;5.63;;;4.43;;
58097;SDS011;43913;55.940;37.504;2022-12-31T07:19:17;5.57;;;4.55;;
58097;SDS011;43913;55.940;37.504;2022-12-31T07:21:47;5.13;;;4.28;;
58097;SDS011;43913;55.940;37.504;2022-12-31T07:24:14;5.15;;;3.95;;
58097;SDS011;43913;55.940;37.504;2022-12-31T07:26:49;4.35;;;3.90;;
58097;SDS011;43913;55.940;37.504;2022-12-31T07:29:43;5.22;;;4.22;;
58097;SDS011;43913;55.940;37.504;2022-12-31T07:34:52;5.30;;;4.03;;
58097;SDS011;43913;55.940;37.504;2022-12-31T07:46:47;5.35;;;4.32;;
58097;SDS011;43913;55.940;37.504;2022-12-31T07:49:08;5.40;;;4.72;;
58097;SDS011;43913;55.940;37.504;2022-12-31T07:51:35;5.00;;;4.47;;
58097;SDS011;43913;55.940;37.504;2022-12-31T07:54:01;5.60;;;4.40;;
58097;SDS011;43913;55.940;37.504;2022-12-31T07:56:28;5.32;;;4.70;;
58097;SDS011;43913;55.940;37.504;2022-12-31T08:10:16;4.88;;;4.10;;
58097;SDS011;43913;55.940;37.504;2022-12-31T08:12:47;6.82;;;3.92;;
58097;SDS011;43913;55.940;37.504;2022-12-31T08:15:17;7.00;;;3.78;;
